Time;durP1;ratioP1;P1;durP2;ratioP2;P2;SDS_P1;SDS_P2;PMS_P1;PMS_P2;Temp;Humidity;BMP_temperature;BMP_pressure;BME280_temperature;BME280_humidity;BME280_pressure;Samples;Min_cycle;Max_cycle;Signal;HPM_P1;HPM_P2
2021/12/15 00:03:48;;;;;;;36.88;18.52;;;;;;;5.54;100.00;101894.47;20913032;28;20055;-81
2021/12/15 00:13:52;;;;;;;34.72;18.33;;;;;;;5.64;100.00;101892.16;20921368;28;20114;-83
2021/12/15 00:23:54;;;;;;;38.77;18.47;;;;;;;5.68;100.00;101893.13;20936334;28;20107;-83
2021/12/15 00:33:56;;;;;;;39.05;19.08;;;;;;;5.68;100.00;101885.34;20943343;28;20057;-83
2021/12/15 00:43:58;;;;;;;36.80;17.58;;;;;;;5.69;100.00;101878.41;20979980;28;20049;-82
2021/12/15 00:54:00;;;;;;;37.53;18.45;;;;;;;5.65;100.00;101880.03;20936349;28;20045;-83
2021/12/15 01:04:03;;;;;;;38.42;18.15;;;;;;;5.66;100.00;101881.81;20972810;28;20052;-83
2021/12/15 01:24:25;;;;;;;38.63;18.83;;;;;;;5.64;100.00;101891.28;20973482;28;20048;-82
2021/12/15 01:34:27;;;;;;;40.65;19.83;;;;;;;5.65;100.00;101893.94;20940960;28;20048;-82
2021/12/15 01:54:32;;;;;;;37.15;17.90;;;;;;;5.64;100.00;101906.88;20967777;28;20052;-82
2021/12/15 02:04:35;;;;;;;36.22;18.38;;;;;;;5.57;100.00;101899.75;20941627;28;20079;-82
2021/12/15 02:14:36;;;;;;;43.20;19.52;;;;;;;5.54;100.00;101895.34;20961342;28;20061;-83
2021/12/15 02:24:40;;;;;;;39.08;18.30;;;;;;;5.57;100.00;101899.75;20929988;28;20482;-83
2021/12/15 02:37:03;;;;;;;39.20;19.30;;;;;;;5.53;100.00;101890.09;20927314;28;20127;-83
2021/12/15 02:45:20;;;;;;;34.30;19.33;;;;;;;5.53;100.00;101897.91;20949273;28;20087;-83
2021/12/15 02:55:22;;;;;;;38.30;18.13;;;;;;;5.46;100.00;101891.66;20948563;28;20079;-83
2021/12/15 03:05:32;;;;;;;38.28;18.38;;;;;;;5.44;100.00;101897.63;20930823;28;20071;-83
2021/12/15 03:15:34;;;;;;;40.15;19.35;;;;;;;5.30;100.00;101895.50;20953506;28;20395;-83
2021/12/15 03:25:36;;;;;;;36.88;16.63;;;;;;;5.36;100.00;101906.06;20952518;28;20509;-83
2021/12/15 03:46:03;;;;;;;41.28;18.73;;;;;;;5.36;100.00;101895.66;20997821;28;20048;-82
2021/12/15 03:56:06;;;;;;;38.03;18.80;;;;;;;5.25;100.00;101897.06;20944238;28;20052;-82
2021/12/15 04:06:12;;;;;;;38.83;18.60;;;;;;;5.11;100.00;101917.44;20978460;28;20049;-84
2021/12/15 04:16:40;;;;;;;51.35;24.00;;;;;;;5.19;100.00;101922.00;20912786;28;20406;-84
2021/12/15 04:26:38;;;;;;;39.33;18.42;;;;;;;5.15;100.00;101923.59;20931572;28;20132;-84
2021/12/15 04:36:47;;;;;;;40.17;17.70;;;;;;;5.17;100.00;101923.63;20934105;28;20049;-83
2021/12/15 04:46:59;;;;;;;34.25;16.63;;;;;;;5.17;100.00;101934.91;20954252;28;20053;-83
2021/12/15 04:57:01;;;;;;;35.78;17.80;;;;;;;5.15;100.00;101928.78;20932197;28;20554;-84
2021/12/15 05:07:03;;;;;;;35.28;17.30;;;;;;;5.15;100.00;101926.19;20940946;28;20048;-83
2021/12/15 05:17:05;;;;;;;33.88;18.00;;;;;;;5.20;100.00;101936.72;20946465;28;20114;-84
2021/12/15 05:27:10;;;;;;;40.85;18.42;;;;;;;5.22;100.00;101948.03;20947915;28;20060;-83
2021/12/15 05:37:16;;;;;;;36.25;18.58;;;;;;;5.26;100.00;101961.16;20936639;28;20100;-84
2021/12/15 05:47:19;;;;;;;40.63;19.50;;;;;;;5.35;100.00;101955.38;20954751;28;20076;-83
2021/12/15 05:57:21;;;;;;;36.58;18.40;;;;;;;5.32;100.00;101961.38;20986970;28;20098;-85
2021/12/15 06:07:22;;;;;;;38.47;19.67;;;;;;;5.29;100.00;101966.47;20969415;28;20105;-83
2021/12/15 06:17:26;;;;;;;35.13;18.23;;;;;;;5.29;100.00;101976.84;20972974;28;20494;-81
2021/12/15 06:27:29;;;;;;;35.05;19.33;;;;;;;5.30;100.00;101972.53;20965999;28;20531;-82
2021/12/15 06:37:31;;;;;;;38.75;18.02;;;;;;;5.30;100.00;101980.31;20959300;28;20494;-82
2021/12/15 07:08:06;;;;;;;34.13;17.75;;;;;;;5.36;100.00;102020.34;20950529;28;20114;-81
2021/12/15 07:18:10;;;;;;;31.80;16.40;;;;;;;5.37;100.00;102022.13;20921789;28;20053;-81
2021/12/15 07:28:13;;;;;;;35.85;18.50;;;;;;;5.34;100.00;102032.41;20906607;28;20099;-81
2021/12/15 07:38:15;;;;;;;31.02;16.60;;;;;;;5.40;100.00;102042.97;20980574;28;20493;-81
2021/12/15 07:48:19;;;;;;;36.63;18.50;;;;;;;5.40;100.00;102053.38;20961943;28;20045;-82
2021/12/15 07:58:22;;;;;;;36.47;18.58;;;;;;;5.37;100.00;102073.19;20945709;28;20194;-82
2021/12/15 08:08:24;;;;;;;46.63;22.48;;;;;;;5.42;100.00;102081.13;20955190;28;20114;-82
2021/12/15 08:18:26;;;;;;;58.08;26.85;;;;;;;5.46;100.00;102093.38;20974960;28;20041;-82
2021/12/15 08:28:28;;;;;;;54.15;25.70;;;;;;;5.53;100.00;102103.13;20978148;28;20052;-82
2021/12/15 08:38:33;;;;;;;43.22;22.58;;;;;;;5.61;100.00;102105.16;21005054;28;20517;-82
2021/12/15 08:48:37;;;;;;;47.30;23.45;;;;;;;5.69;100.00;102101.91;20999455;28;20479;-82
2021/12/15 08:58:39;;;;;;;49.95;23.48;;;;;;;5.90;100.00;102097.38;20954688;28;20113;-82
2021/12/15 09:08:42;;;;;;;50.50;25.35;;;;;;;5.87;100.00;102107.69;20967373;28;20041;-82
2021/12/15 09:18:46;;;;;;;48.10;24.40;;;;;;;5.83;100.00;102109.28;20954866;28;20106;-83
2021/12/15 09:28:49;;;;;;;50.20;25.47;;;;;;;6.20;100.00;102115.66;20951397;28;20684;-82
2021/12/15 09:38:54;;;;;;;52.17;25.55;;;;;;;6.24;99.79;102107.09;20981075;28;20588;-82
2021/12/15 10:20:03;;;;;;;54.20;26.80;;;;;;;6.63;97.83;102098.66;20970235;28;20044;-82
2021/12/15 10:30:24;;;;;;;52.53;26.47;;;;;;;6.81;97.87;102087.88;20968880;28;20110;-82
2021/12/15 10:40:26;;;;;;;54.38;26.63;;;;;;;6.87;98.09;102085.44;20972975;28;20487;-82
2021/12/15 10:50:27;;;;;;;49.80;24.63;;;;;;;7.03;96.68;102078.91;20963171;28;20041;-82
2021/12/15 11:00:35;;;;;;;47.40;25.08;;;;;;;7.04;97.13;102076.34;20991538;28;20508;-82
2021/12/15 11:10:38;;;;;;;49.85;25.30;;;;;;;7.02;97.01;102069.31;20916561;28;20086;-82
2021/12/15 11:20:43;;;;;;;48.20;24.98;;;;;;;7.25;97.58;102065.56;20961952;28;20098;-82
2021/12/15 11:31:04;;;;;;;47.22;24.52;;;;;;;7.42;95.11;102047.72;20948303;28;20493;-82
2021/12/15 11:41:11;;;;;;;42.95;22.05;;;;;;;7.50;94.71;102056.59;20933623;28;20052;-82
2021/12/15 11:51:13;;;;;;;45.95;21.85;;;;;;;7.60;94.54;102040.34;20948594;28;20045;-83
2021/12/15 12:01:50;;;;;;;36.15;19.33;;;;;;;7.86;93.21;102030.50;20949319;28;20045;-82
2021/12/15 12:11:58;;;;;;;34.65;19.23;;;;;;;7.86;92.86;102020.06;20988225;28;20413;-80
2021/12/15 12:22:00;;;;;;;33.00;17.60;;;;;;;7.79;91.53;102018.16;20963531;28;20150;-81
2021/12/15 12:32:02;;;;;;;38.90;19.95;;;;;;;7.67;92.38;102007.47;20977983;28;20044;-80
2021/12/15 12:42:05;;;;;;;42.53;19.42;;;;;;;7.58;93.25;102002.94;20961275;28;20063;-80
2021/12/15 13:02:47;;;;;;;30.60;16.40;;;;;;;7.62;91.51;102003.91;20962626;28;20056;-81
2021/12/15 13:12:49;;;;;;;27.90;15.27;;;;;;;7.59;91.31;102002.09;20968234;28;20103;-80
2021/12/15 13:23:07;;;;;;;24.05;14.75;;;;;;;7.70;89.81;102007.53;20952232;28;20064;-82
2021/12/15 13:33:14;;;;;;;28.90;14.75;;;;;;;7.66;90.50;101990.06;20942926;28;20049;-80
2021/12/15 13:43:38;;;;;;;24.65;13.10;;;;;;;7.58;89.98;101999.47;20951411;28;20048;-80
2021/12/15 13:53:39;;;;;;;20.83;12.75;;;;;;;7.65;88.16;102004.81;20931950;28;20463;-81
2021/12/15 14:03:48;;;;;;;26.23;13.73;;;;;;;7.65;90.84;102001.34;20988682;28;20049;-81
2021/12/15 14:13:51;;;;;;;25.20;15.30;;;;;;;7.55;91.66;102007.19;20992370;28;20075;-81
2021/12/15 14:23:54;;;;;;;28.70;16.83;;;;;;;7.61;91.00;102009.94;20922454;28;20413;-81
2021/12/15 14:34:11;;;;;;;27.98;16.55;;;;;;;7.59;91.03;102009.03;20945540;28;20051;-81
2021/12/15 14:44:36;;;;;;;26.02;15.32;;;;;;;7.54;90.87;102023.69;20986178;28;20091;-82
2021/12/15 14:54:39;;;;;;;21.03;13.17;;;;;;;7.52;91.44;102026.28;20946101;28;20127;-83
2021/12/15 15:04:43;;;;;;;20.27;11.90;;;;;;;7.43;92.32;102034.75;20955830;28;20493;-81
2021/12/15 15:14:51;;;;;;;22.13;13.73;;;;;;;7.41;93.08;102033.81;20974881;28;20044;-81
2021/12/15 15:24:55;;;;;;;23.67;13.07;;;;;;;7.38;93.96;102038.09;20918372;28;20114;-81
2021/12/15 15:35:08;;;;;;;23.65;13.98;;;;;;;7.33;94.47;102051.03;20924524;28;20045;-81
2021/12/15 15:45:26;;;;;;;27.50;14.82;;;;;;;7.34;93.42;102071.00;21027739;28;20062;-81
2021/12/15 15:55:28;;;;;;;16.90;9.77;;;;;;;7.23;91.49;102072.44;20999540;28;20044;-82
2021/12/15 16:05:29;;;;;;;17.70;8.95;;;;;;;7.20;91.01;102088.03;20970408;28;20115;-81
2021/12/15 16:15:38;;;;;;;19.15;10.65;;;;;;;7.26;89.27;102097.72;20980195;28;20455;-81
2021/12/15 16:25:42;;;;;;;12.68;7.25;;;;;;;7.14;89.87;102087.88;20986928;28;20110;-81
2021/12/15 16:35:45;;;;;;;10.87;6.13;;;;;;;7.09;89.78;102095.56;20948340;28;20051;-80
2021/12/15 16:45:48;;;;;;;14.35;7.80;;;;;;;7.06;89.42;102094.59;20988985;28;20048;-81
2021/12/15 16:55:50;;;;;;;12.57;7.47;;;;;;;7.03;88.54;102098.00;20968586;28;20086;-81
2021/12/15 17:05:51;;;;;;;15.68;7.95;;;;;;;7.03;88.15;102110.16;20956545;28;20045;-81
2021/12/15 17:15:58;;;;;;;15.20;9.45;;;;;;;6.99;88.59;102121.31;20991045;28;20045;-81
2021/12/15 17:26:07;;;;;;;15.65;8.23;;;;;;;6.96;88.08;102118.66;21009839;28;20474;-81
2021/12/15 17:36:27;;;;;;;11.48;7.15;;;;;;;6.90;88.31;102122.84;20988241;28;20394;-81
2021/12/15 17:46:33;;;;;;;15.10;8.55;;;;;;;6.89;87.28;102134.09;20979279;28;20051;-81
2021/12/15 17:56:35;;;;;;;13.80;8.80;;;;;;;6.88;88.58;102121.91;20990172;28;20074;-81
2021/12/15 18:06:38;;;;;;;15.55;9.45;;;;;;;6.84;87.68;102127.88;20963967;28;20113;-81
2021/12/15 18:16:40;;;;;;;12.82;7.63;;;;;;;6.83;89.14;102135.66;20998822;23;20056;-71
2021/12/15 18:26:45;;;;;;;16.88;10.80;;;;;;;6.81;88.78;102140.81;21061465;22;20121;-75
2021/12/15 18:36:47;;;;;;;14.70;9.53;;;;;;;6.79;89.14;102154.63;21017644;28;20067;-74
2021/12/15 18:46:50;;;;;;;23.63;12.30;;;;;;;6.82;88.08;102152.13;21016870;28;20302;-71
2021/12/15 18:56:57;;;;;;;19.70;11.45;;;;;;;6.80;88.82;102165.06;21014613;28;20049;-71
2021/12/15 19:06:59;;;;;;;62.38;23.95;;;;;;;6.80;88.12;102172.88;21013184;28;20052;-71
2021/12/15 19:17:01;;;;;;;19.90;12.30;;;;;;;6.75;89.09;102177.06;21015866;28;20113;-71
2021/12/15 19:27:03;;;;;;;39.63;17.27;;;;;;;6.76;88.61;102191.00;21010458;28;20098;-70
2021/12/15 19:37:05;;;;;;;14.73;7.90;;;;;;;6.61;90.52;102204.44;21014743;28;20390;-71
2021/12/15 19:47:09;;;;;;;28.17;14.13;;;;;;;6.60;91.42;102202.69;21010556;28;20109;-71
2021/12/15 19:57:10;;;;;;;9.27;5.32;;;;;;;6.50;92.34;102200.63;21007693;28;20083;-71
2021/12/15 20:07:15;;;;;;;13.32;7.38;;;;;;;6.51;92.05;102208.47;21008693;28;20074;-71
2021/12/15 20:17:16;;;;;;;10.10;5.30;;;;;;;6.46;92.94;102211.78;21024987;28;20052;-71
2021/12/15 20:27:22;;;;;;;12.50;6.63;;;;;;;6.42;92.68;102227.31;21005680;28;20448;-70
2021/12/15 20:37:26;;;;;;;15.55;8.73;;;;;;;6.49;91.71;102230.09;21025833;28;20056;-70
2021/12/15 20:47:28;;;;;;;22.23;12.50;;;;;;;6.46;91.92;102235.22;21025977;28;20485;-71
2021/12/15 20:57:29;;;;;;;17.80;10.50;;;;;;;6.48;92.68;102233.56;21024903;28;20094;-71
2021/12/15 21:07:36;;;;;;;14.80;9.02;;;;;;;6.38;92.98;102242.78;21023560;28;20086;-70
2021/12/15 21:17:39;;;;;;;14.15;8.27;;;;;;;6.39;93.54;102229.81;21022632;28;20050;-71
2021/12/15 21:27:42;;;;;;;18.05;11.20;;;;;;;6.42;93.59;102235.13;21022731;28;20097;-71
2021/12/15 21:37:43;;;;;;;14.45;9.05;;;;;;;6.30;93.69;102237.34;21019498;28;20048;-72
2021/12/15 21:47:45;;;;;;;16.00;9.63;;;;;;;6.33;92.38;102236.56;21014980;28;20056;-71
2021/12/15 21:57:48;;;;;;;17.38;8.98;;;;;;;6.26;92.14;102243.28;21022673;28;20409;-71
2021/12/15 22:07:49;;;;;;;13.75;8.05;;;;;;;6.25;92.18;102241.53;21017454;28;20040;-71
2021/12/15 22:17:51;;;;;;;14.32;8.30;;;;;;;6.16;92.48;102249.03;21017321;28;20071;-71
2021/12/15 22:27:52;;;;;;;16.15;9.73;;;;;;;6.16;93.03;102249.91;21019160;28;20083;-71
2021/12/15 22:37:56;;;;;;;15.75;8.63;;;;;;;6.12;92.91;102254.97;21013023;28;20040;-72
2021/12/15 22:47:58;;;;;;;17.42;8.77;;;;;;;6.10;92.44;102252.31;21017666;28;20044;-71
2021/12/15 22:57:59;;;;;;;16.08;10.18;;;;;;;6.11;92.94;102251.47;21016484;28;20425;-71
2021/12/15 23:08:03;;;;;;;17.63;11.05;;;;;;;6.07;92.66;102261.72;21020236;28;20044;-70
2021/12/15 23:18:10;;;;;;;15.95;9.88;;;;;;;6.04;93.05;102251.25;21022644;28;20097;-71
2021/12/15 23:28:18;;;;;;;17.38;10.25;;;;;;;6.05;93.12;102253.91;21021652;28;20114;-71
2021/12/15 23:38:33;;;;;;;16.73;10.95;;;;;;;6.05;93.33;102250.41;21016172;28;20518;-71
